Time;durP1;ratioP1;P1;durP2;ratioP2;P2;SDS_P1;SDS_P2;PMS_P1;PMS_P2;Temp;Humidity;BMP_temperature;BMP_pressure;BME280_temperature;BME280_humidity;BME280_pressure;Samples;Min_cycle;Max_cycle;Signal;HPM_P1;HPM_P2
2022/07/23 00:02:27;;;;;;;;;;;17.70;99.90;;;;;;5105803;27;19916;-57
2022/07/23 00:05:07;;;;;;;;;;;17.60;99.90;;;;;;5159921;27;19925;-55
2022/07/23 00:07:46;;;;;;;;;;;17.60;99.90;;;;;;5089382;27;19919;-56
2022/07/23 00:10:26;;;;;;;;;;;17.60;99.90;;;;;;5125598;27;19919;-56
2022/07/23 00:13:06;;;;;;;;;;;17.60;99.90;;;;;;5125522;27;19912;-56
2022/07/23 00:15:46;;;;;;;;;;;17.70;99.90;;;;;;5125041;27;20137;-55
2022/07/23 00:18:28;;;;;;;;;;;17.80;99.90;;;;;;5125103;27;19920;-56
2022/07/23 00:21:09;;;;;;;;;;;17.90;99.90;;;;;;5125869;27;19912;-56
2022/07/23 00:23:48;;;;;;;;;;;17.90;99.90;;;;;;5125399;27;19922;-56
2022/07/23 00:26:28;;;;;;;;;;;17.90;99.90;;;;;;5120402;27;19922;-55
2022/07/23 00:29:08;;;;;;;;;;;17.80;99.90;;;;;;5125518;27;19922;-56
2022/07/23 00:31:48;;;;;;;;;;;17.70;99.90;;;;;;5125507;27;19912;-57
2022/07/23 00:34:28;;;;;;;;;;;17.60;99.90;;;;;;5125578;27;19918;-57
2022/07/23 00:37:08;;;;;;;;;;;17.50;99.90;;;;;;5114310;27;20021;-56
2022/07/23 00:39:47;;;;;;;;;;;17.50;99.90;;;;;;5125532;27;19912;-56
2022/07/23 00:42:27;;;;;;;;;;;17.60;99.90;;;;;;5109634;27;19916;-56
2022/07/23 00:45:08;;;;;;;;;;;17.50;99.90;;;;;;5125668;27;19922;-55
2022/07/23 00:47:48;;;;;;;;;;;17.60;99.90;;;;;;5088506;27;19927;-55
2022/07/23 00:50:28;;;;;;;;;;;17.50;99.90;;;;;;5125971;27;19912;-55
2022/07/23 00:53:09;;;;;;;;;;;17.70;99.90;;;;;;5125538;27;19919;-55
2022/07/23 00:55:50;;;;;;;;;;;18.20;99.90;;;;;;5104872;27;19912;-54
2022/07/23 00:58:29;;;;;;;;;;;18.70;99.90;;;;;;5085054;28;19913;-55
2022/07/23 01:01:09;;;;;;;;;;;18.80;99.90;;;;;;5126075;27;19946;-54
2022/07/23 01:03:49;;;;;;;;;;;18.10;99.90;;;;;;5105562;27;19916;-56
2022/07/23 01:06:29;;;;;;;;;;;17.60;99.90;;;;;;5100570;27;20472;-55
2022/07/23 01:09:09;;;;;;;;;;;17.30;99.90;;;;;;5104154;27;19912;-56
2022/07/23 01:11:48;;;;;;;;;;;17.20;99.90;;;;;;5105639;27;19926;-56
2022/07/23 01:14:28;;;;;;;;;;;17.10;99.90;;;;;;5125555;27;19912;-55
2022/07/23 01:17:08;;;;;;;;;;;17.00;99.90;;;;;;5093837;27;19917;-55
2022/07/23 01:19:48;;;;;;;;;;;16.90;99.90;;;;;;5117679;27;19927;-55
2022/07/23 01:22:29;;;;;;;;;;;16.80;99.90;;;;;;5109111;27;20344;-55
2022/07/23 01:25:10;;;;;;;;;;;16.80;99.90;;;;;;5050833;28;19921;-56
2022/07/23 01:27:53;;;;;;;;;;;16.70;99.90;;;;;;5084631;27;19936;-55
2022/07/23 01:30:34;;;;;;;;;;;16.60;99.90;;;;;;5103451;27;19915;-55
2022/07/23 01:33:17;;;;;;;;;;;16.60;99.90;;;;;;5103277;27;20355;-57
2022/07/23 01:35:56;;;;;;;;;;;16.60;99.90;;;;;;5099631;27;19916;-55
2022/07/23 01:38:38;;;;;;;;;;;16.60;99.90;;;;;;5124442;27;19912;-55
2022/07/23 01:41:18;;;;;;;;;;;16.80;99.90;;;;;;5124671;27;19911;-56
2022/07/23 01:43:58;;;;;;;;;;;16.80;99.90;;;;;;5102919;27;19940;-56
2022/07/23 01:46:40;;;;;;;;;;;16.70;99.90;;;;;;5097821;27;19954;-55
2022/07/23 01:49:20;;;;;;;;;;;16.70;99.90;;;;;;5125159;27;20392;-56
2022/07/23 01:52:20;;;;;;;;;;;16.70;99.90;;;;;;5125791;27;19919;-55
2022/07/23 01:55:03;;;;;;;;;;;16.70;99.90;;;;;;5125341;27;19939;-54
2022/07/23 01:57:42;;;;;;;;;;;16.70;99.90;;;;;;5109574;27;19912;-56
2022/07/23 02:00:24;;;;;;;;;;;16.80;99.90;;;;;;5133087;27;19916;-55
2022/07/23 02:03:05;;;;;;;;;;;16.80;99.90;;;;;;5125328;27;19934;-57
2022/07/23 02:05:45;;;;;;;;;;;16.80;99.90;;;;;;5103933;27;19912;-56
2022/07/23 02:08:25;;;;;;;;;;;16.80;99.90;;;;;;5133337;27;19918;-56
2022/07/23 02:11:05;;;;;;;;;;;16.80;99.90;;;;;;5125896;27;19922;-55
2022/07/23 02:13:46;;;;;;;;;;;16.70;99.90;;;;;;5106349;27;20453;-55
2022/07/23 02:16:26;;;;;;;;;;;16.70;99.90;;;;;;5120385;27;20411;-56
2022/07/23 02:19:06;;;;;;;;;;;16.70;99.90;;;;;;5104561;27;19926;-56
2022/07/23 02:21:46;;;;;;;;;;;16.70;99.90;;;;;;5124732;27;19926;-56
2022/07/23 02:24:25;;;;;;;;;;;16.70;99.90;;;;;;5124980;27;19922;-56
2022/07/23 02:27:07;;;;;;;;;;;16.70;99.90;;;;;;5113646;27;19912;-57
2022/07/23 02:29:48;;;;;;;;;;;16.80;99.90;;;;;;5133166;27;19918;-55
2022/07/23 02:32:28;;;;;;;;;;;16.70;99.90;;;;;;5125472;27;20401;-55
2022/07/23 02:35:08;;;;;;;;;;;16.80;99.90;;;;;;5104966;27;19926;-55
2022/07/23 02:37:48;;;;;;;;;;;16.80;99.90;;;;;;5123423;27;19912;-54
2022/07/23 02:40:28;;;;;;;;;;;16.80;99.90;;;;;;5125767;27;19916;-55
2022/07/23 02:43:07;;;;;;;;;;;16.80;99.90;;;;;;5125454;27;19912;-55
2022/07/23 02:45:47;;;;;;;;;;;16.80;99.90;;;;;;5104507;27;20434;-56
2022/07/23 02:48:27;;;;;;;;;;;16.80;99.90;;;;;;5104820;27;19912;-55
2022/07/23 02:51:07;;;;;;;;;;;16.90;99.90;;;;;;5125873;27;19916;-56
2022/07/23 02:53:52;;;;;;;;;;;16.90;99.90;;;;;;5125831;27;19919;-57
2022/07/23 02:56:31;;;;;;;;;;;17.00;99.90;;;;;;5119529;27;19913;-55
2022/07/23 02:59:11;;;;;;;;;;;17.00;99.90;;;;;;5123317;27;20303;-54
2022/07/23 03:01:51;;;;;;;;;;;17.00;99.90;;;;;;5123609;27;19912;-56
2022/07/23 03:04:32;;;;;;;;;;;17.10;99.90;;;;;;5125392;27;19912;-54
2022/07/23 03:07:12;;;;;;;;;;;17.20;99.90;;;;;;5125037;27;19916;-56
2022/07/23 03:09:52;;;;;;;;;;;17.20;99.90;;;;;;5084160;28;19916;-56
2022/07/23 03:12:32;;;;;;;;;;;17.30;99.90;;;;;;5125749;27;19918;-56
2022/07/23 03:15:12;;;;;;;;;;;17.30;99.90;;;;;;5125595;27;19926;-56
2022/07/23 03:17:52;;;;;;;;;;;17.30;99.90;;;;;;5087970;27;19946;-56
2022/07/23 03:20:32;;;;;;;;;;;17.30;99.90;;;;;;5085066;28;19939;-56
2022/07/23 03:23:11;;;;;;;;;;;17.30;99.90;;;;;;5125679;27;19911;-56
2022/07/23 03:25:51;;;;;;;;;;;17.20;99.90;;;;;;5104313;27;19926;-56
2022/07/23 03:28:31;;;;;;;;;;;17.20;99.90;;;;;;5123436;27;20331;-56
2022/07/23 03:31:11;;;;;;;;;;;17.20;99.90;;;;;;5125846;27;19912;-56
2022/07/23 03:33:52;;;;;;;;;;;17.20;99.90;;;;;;5125319;27;20270;-56
2022/07/23 03:36:32;;;;;;;;;;;17.40;99.90;;;;;;5145289;27;19918;-56
2022/07/23 03:39:12;;;;;;;;;;;17.60;99.90;;;;;;5124660;27;19916;-56
2022/07/23 03:41:52;;;;;;;;;;;17.90;99.90;;;;;;5125461;27;19912;-56
2022/07/23 03:44:32;;;;;;;;;;;18.10;99.90;;;;;;5125687;27;20373;-56
2022/07/23 03:47:12;;;;;;;;;;;18.30;99.90;;;;;;5098273;27;20320;-56
2022/07/23 03:49:51;;;;;;;;;;;18.40;99.90;;;;;;5105778;27;20435;-56
2022/07/23 03:52:31;;;;;;;;;;;18.60;99.90;;;;;;5126072;27;19918;-56
2022/07/23 03:55:11;;;;;;;;;;;18.70;99.90;;;;;;5104968;27;19916;-56
2022/07/23 03:57:51;;;;;;;;;;;18.90;99.90;;;;;;5108947;27;19920;-56
2022/07/23 04:00:30;;;;;;;;;;;19.00;99.90;;;;;;5105253;27;19916;-57
2022/07/23 04:03:10;;;;;;;;;;;19.10;99.90;;;;;;5125611;27;20282;-56
2022/07/23 04:05:52;;;;;;;;;;;19.20;99.90;;;;;;5124676;27;19915;-57
2022/07/23 04:08:31;;;;;;;;;;;19.30;99.90;;;;;;5125152;27;19916;-56
2022/07/23 04:11:13;;;;;;;;;;;19.30;99.90;;;;;;5105270;27;19926;-56
2022/07/23 04:13:53;;;;;;;;;;;19.40;99.90;;;;;;5125797;27;19918;-56
2022/07/23 04:16:34;;;;;;;;;;;19.30;99.90;;;;;;5119821;27;20340;-56
2022/07/23 04:19:14;;;;;;;;;;;19.30;99.90;;;;;;5125621;27;20361;-56
2022/07/23 04:22:20;;;;;;;;;;;19.30;99.90;;;;;;5126037;27;19912;-58
2022/07/23 04:25:00;;;;;;;;;;;19.30;99.90;;;;;;5125991;27;20423;-55
2022/07/23 04:27:40;;;;;;;;;;;19.40;99.90;;;;;;5124391;27;20331;-55
2022/07/23 04:30:20;;;;;;;;;;;19.40;99.90;;;;;;5105219;27;19927;-56
2022/07/23 04:32:59;;;;;;;;;;;19.50;99.90;;;;;;5125653;27;19918;-56
2022/07/23 04:35:42;;;;;;;;;;;19.50;99.90;;;;;;5125035;27;20625;-56
2022/07/23 04:38:27;;;;;;;;;;;19.50;99.90;;;;;;5125081;27;19912;-56
2022/07/23 04:41:12;;;;;;;;;;;19.50;99.90;;;;;;5105267;27;19969;-56
2022/07/23 04:43:53;;;;;;;;;;;19.60;99.90;;;;;;5104795;27;19923;-56
2022/07/23 04:46:33;;;;;;;;;;;19.60;99.90;;;;;;5099176;27;19912;-56
2022/07/23 04:49:13;;;;;;;;;;;19.60;99.90;;;;;;5105084;27;19912;-56
2022/07/23 04:51:53;;;;;;;;;;;19.60;99.90;;;;;;5125659;27;19918;-55
2022/07/23 04:54:33;;;;;;;;;;;19.50;99.90;;;;;;5105258;27;19989;-55
2022/07/23 04:57:12;;;;;;;;;;;19.60;99.90;;;;;;5113981;27;20381;-56
2022/07/23 04:59:52;;;;;;;;;;;19.60;99.90;;;;;;5084246;28;19917;-56
2022/07/23 05:02:33;;;;;;;;;;;19.60;99.90;;;;;;5125879;27;19960;-56
2022/07/23 05:05:13;;;;;;;;;;;19.60;99.90;;;;;;5125388;27;20384;-56
2022/07/23 05:07:55;;;;;;;;;;;19.60;99.90;;;;;;5108088;27;19930;-56
2022/07/23 05:10:35;;;;;;;;;;;19.60;99.90;;;;;;5125818;27;19935;-56
2022/07/23 05:13:16;;;;;;;;;;;19.70;99.90;;;;;;5125680;27;20754;-55
2022/07/23 05:15:56;;;;;;;;;;;19.70;99.90;;;;;;5104203;27;19945;-56
2022/07/23 05:18:37;;;;;;;;;;;19.80;99.90;;;;;;5104766;27;19926;-56
2022/07/23 05:21:17;;;;;;;;;;;19.90;99.90;;;;;;5111141;27;19918;-56
2022/07/23 05:23:57;;;;;;;;;;;20.10;99.90;;;;;;5125356;27;19911;-56
2022/07/23 05:26:37;;;;;;;;;;;20.20;99.90;;;;;;5119227;27;19918;-56
2022/07/23 05:29:18;;;;;;;;;;;20.50;99.90;;;;;;5123302;27;20367;-56
2022/07/23 05:32:00;;;;;;;;;;;20.70;99.90;;;;;;5105610;27;19965;-55
2022/07/23 05:34:41;;;;;;;;;;;21.00;99.90;;;;;;5124041;27;20377;-56
2022/07/23 05:37:21;;;;;;;;;;;21.40;99.90;;;;;;5110515;27;19930;-56
2022/07/23 05:40:04;;;;;;;;;;;21.60;99.90;;;;;;5125942;27;19912;-56
2022/07/23 05:42:44;;;;;;;;;;;21.80;99.90;;;;;;5126166;27;19911;-55
2022/07/23 05:45:25;;;;;;;;;;;21.90;99.90;;;;;;5125478;27;20300;-55
2022/07/23 05:48:05;;;;;;;;;;;22.10;99.90;;;;;;5124816;27;19912;-56
2022/07/23 05:50:51;;;;;;;;;;;22.30;99.90;;;;;;5104776;27;20423;-56
2022/07/23 05:53:42;;;;;;;;;;;22.30;99.90;;;;;;5125196;27;19928;-56
2022/07/23 05:56:27;;;;;;;;;;;22.40;99.90;;;;;;5123510;27;20308;-56
2022/07/23 05:59:07;;;;;;;;;;;22.40;99.90;;;;;;5104618;27;19926;-56
2022/07/23 06:01:47;;;;;;;;;;;22.40;99.90;;;;;;5104600;27;19918;-56
2022/07/23 06:04:26;;;;;;;;;;;22.70;99.90;;;;;;5126040;27;19925;-56
2022/07/23 06:07:27;;;;;;;;;;;22.80;99.90;;;;;;5145911;27;19915;-56
2022/07/23 06:10:08;;;;;;;;;;;23.00;99.90;;;;;;5124120;27;19915;-56
2022/07/23 06:12:48;;;;;;;;;;;23.10;99.90;;;;;;5125373;27;19916;-57
2022/07/23 06:15:28;;;;;;;;;;;23.20;99.90;;;;;;5113442;27;20242;-56
2022/07/23 06:18:08;;;;;;;;;;;23.50;99.90;;;;;;5124949;27;19915;-56
2022/07/23 06:20:48;;;;;;;;;;;23.80;99.90;;;;;;5125245;27;19913;-56
2022/07/23 06:23:28;;;;;;;;;;;23.90;99.90;;;;;;5125067;27;20331;-56
2022/07/23 06:26:07;;;;;;;;;;;24.00;99.90;;;;;;5117022;27;19965;-56
2022/07/23 06:28:47;;;;;;;;;;;24.10;99.90;;;;;;5124618;27;19915;-57
2022/07/23 06:31:27;;;;;;;;;;;24.30;99.90;;;;;;5124628;27;19918;-56
2022/07/23 06:34:07;;;;;;;;;;;24.40;99.90;;;;;;5104366;27;20180;-56
2022/07/23 06:36:50;;;;;;;;;;;24.50;99.90;;;;;;5139836;27;19965;-56
2022/07/23 06:39:30;;;;;;;;;;;24.70;99.90;;;;;;5104522;27;20435;-56
2022/07/23 06:42:12;;;;;;;;;;;24.90;99.90;;;;;;5124102;27;19923;-56
2022/07/23 06:44:58;;;;;;;;;;;24.90;99.90;;;;;;5124949;27;20428;-56
2022/07/23 06:47:38;;;;;;;;;;;24.90;99.90;;;;;;5124555;27;19912;-57
2022/07/23 06:50:19;;;;;;;;;;;25.00;99.90;;;;;;5125597;27;19911;-56
2022/07/23 06:52:58;;;;;;;;;;;25.10;99.90;;;;;;5125527;27;20377;-56
2022/07/23 06:55:40;;;;;;;;;;;25.40;99.90;;;;;;5125012;27;19912;-58
2022/07/23 06:58:20;;;;;;;;;;;25.50;99.90;;;;;;5125372;27;19912;-56
2022/07/23 07:01:00;;;;;;;;;;;25.70;99.90;;;;;;5125908;27;20282;-56
2022/07/23 07:03:39;;;;;;;;;;;25.90;99.90;;;;;;5125585;27;20284;-56
2022/07/23 07:06:19;;;;;;;;;;;26.00;99.90;;;;;;5124270;27;19911;-56
2022/07/23 07:08:59;;;;;;;;;;;26.00;99.90;;;;;;5122984;27;19918;-56
2022/07/23 07:11:39;;;;;;;;;;;25.90;99.90;;;;;;5104653;27;19916;-56
2022/07/23 07:14:19;;;;;;;;;;;25.90;99.90;;;;;;5125828;27;20236;-56
2022/07/23 07:17:00;;;;;;;;;;;26.00;99.90;;;;;;5116323;27;19926;-56
2022/07/23 07:19:40;;;;;;;;;;;26.00;99.90;;;;;;5125446;27;19916;-56
2022/07/23 07:22:20;;;;;;;;;;;26.10;99.90;;;;;;5125321;27;19922;-56
2022/07/23 07:25:00;;;;;;;;;;;26.20;99.90;;;;;;5114282;27;20367;-58
2022/07/23 07:27:39;;;;;;;;;;;26.20;99.90;;;;;;5106934;27;20400;-56
2022/07/23 07:30:19;;;;;;;;;;;26.00;99.90;;;;;;5103683;27;19912;-56
2022/07/23 07:32:59;;;;;;;;;;;26.00;99.90;;;;;;5135005;27;19918;-56
2022/07/23 07:35:39;;;;;;;;;;;26.20;99.90;;;;;;5124351;27;19912;-56
2022/07/23 07:38:19;;;;;;;;;;;26.30;99.90;;;;;;5123944;27;20218;-56
2022/07/23 07:40:59;;;;;;;;;;;26.50;99.60;;;;;;5123861;27;20280;-56
2022/07/23 07:43:39;;;;;;;;;;;26.60;99.70;;;;;;5125315;27;19922;-56
2022/07/23 07:46:18;;;;;;;;;;;26.60;98.90;;;;;;5157288;27;19921;-56
2022/07/23 07:48:58;;;;;;;;;;;26.80;99.90;;;;;;5125435;27;20096;-56
2022/07/23 07:51:38;;;;;;;;;;;26.80;99.90;;;;;;5125823;27;19926;-56
2022/07/23 07:54:18;;;;;;;;;;;26.90;99.90;;;;;;5123933;27;19918;-56
2022/07/23 07:56:57;;;;;;;;;;;26.90;99.50;;;;;;5122710;27;20289;-56
2022/07/23 07:59:37;;;;;;;;;;;26.90;99.90;;;;;;5082613;28;19913;-56
2022/07/23 08:02:17;;;;;;;;;;;27.10;99.90;;;;;;5082203;28;19943;-56
2022/07/23 08:04:57;;;;;;;;;;;27.40;98.00;;;;;;5082760;28;19913;-57
2022/07/23 08:07:38;;;;;;;;;;;27.70;95.10;;;;;;5110393;27;20401;-56
2022/07/23 08:10:19;;;;;;;;;;;28.00;95.20;;;;;;5124492;27;19915;-56
2022/07/23 08:13:01;;;;;;;;;;;28.20;91.70;;;;;;5145328;27;20327;-56
2022/07/23 08:15:42;;;;;;;;;;;28.30;90.40;;;;;;5103219;27;19946;-57
2022/07/23 08:18:21;;;;;;;;;;;28.50;91.60;;;;;;5103743;27;19977;-56
2022/07/23 08:21:01;;;;;;;;;;;28.80;86.80;;;;;;5124209;27;19918;-56
2022/07/23 08:23:41;;;;;;;;;;;29.20;87.30;;;;;;5123798;27;20365;-56
2022/07/23 08:26:20;;;;;;;;;;;29.50;78.50;;;;;;5098931;27;19931;-56
2022/07/23 08:29:00;;;;;;;;;;;29.70;76.40;;;;;;5123713;27;19918;-57
2022/07/23 08:31:40;;;;;;;;;;;29.50;74.20;;;;;;5123834;27;19912;-56
2022/07/23 08:34:20;;;;;;;;;;;29.30;72.60;;;;;;5145460;27;19912;-56
2022/07/23 08:37:00;;;;;;;;;;;29.20;72.10;;;;;;5144599;27;19915;-57
2022/07/23 08:39:40;;;;;;;;;;;29.50;74.80;;;;;;5124770;27;20380;-56
2022/07/23 08:42:20;;;;;;;;;;;29.80;73.00;;;;;;5104674;27;19916;-56
2022/07/23 08:45:01;;;;;;;;;;;29.80;68.90;;;;;;5143742;27;19916;-57
2022/07/23 08:47:41;;;;;;;;;;;29.80;71.60;;;;;;5109257;27;20377;-57
2022/07/23 08:50:21;;;;;;;;;;;29.90;66.10;;;;;;5125692;27;19912;-56
2022/07/23 08:53:02;;;;;;;;;;;30.20;63.70;;;;;;5125485;27;19912;-56
2022/07/23 08:55:44;;;;;;;;;;;30.40;61.10;;;;;;5124395;27;20580;-56
2022/07/23 08:58:24;;;;;;;;;;;30.30;58.80;;;;;;5104758;27;19916;-56
2022/07/23 09:01:03;;;;;;;;;;;30.20;59.00;;;;;;5125616;27;19952;-56
2022/07/23 09:03:44;;;;;;;;;;;30.10;59.90;;;;;;5104677;27;20320;-56
2022/07/23 09:06:24;;;;;;;;;;;30.20;59.10;;;;;;5121080;27;19912;-58
2022/07/23 09:09:18;;;;;;;;;;;30.10;58.90;;;;;;5105392;27;19945;-55
2022/07/23 09:12:06;;;;;;;;;;;29.80;59.70;;;;;;5125374;27;20373;-54
2022/07/23 09:14:46;;;;;;;;;;;29.50;60.00;;;;;;5125108;27;19911;-54
2022/07/23 09:17:26;;;;;;;;;;;29.40;58.90;;;;;;5124972;27;19929;-55
2022/07/23 09:20:13;;;;;;;;;;;29.60;60.30;;;;;;5126179;27;19925;-56
2022/07/23 09:22:54;;;;;;;;;;;30.20;59.70;;;;;;5125103;27;19922;-55
2022/07/23 09:25:34;;;;;;;;;;;30.90;57.10;;;;;;5104443;27;19969;-55
2022/07/23 09:28:13;;;;;;;;;;;31.50;56.10;;;;;;5125209;27;20312;-55
2022/07/23 09:30:53;;;;;;;;;;;31.50;53.20;;;;;;5125327;27;19911;-56
2022/07/23 09:33:33;;;;;;;;;;;31.30;51.00;;;;;;5125523;27;19912;-55
2022/07/23 09:36:13;;;;;;;;;;;31.30;51.10;;;;;;5122045;27;19912;-55
2022/07/23 09:38:53;;;;;;;;;;;31.40;49.00;;;;;;5104235;27;19928;-56
2022/07/23 09:41:36;;;;;;;;;;;30.90;47.60;;;;;;5104915;27;20315;-55
2022/07/23 09:44:18;;;;;;;;;;;30.50;49.20;;;;;;5104298;27;19926;-55
2022/07/23 09:47:02;;;;;;;;;;;30.10;50.50;;;;;;5095250;27;19923;-55
2022/07/23 09:49:57;;;;;;;;;;;30.00;51.60;;;;;;5125256;27;19916;-56
2022/07/23 09:52:43;;;;;;;;;;;30.30;50.90;;;;;;5124648;27;19912;-56
2022/07/23 09:55:31;;;;;;;;;;;30.20;52.50;;;;;;5125149;27;19912;-55
2022/07/23 09:58:12;;;;;;;;;;;29.50;53.50;;;;;;5124978;27;19916;-56
2022/07/23 10:00:53;;;;;;;;;;;28.30;54.30;;;;;;5105691;27;20312;-55
2022/07/23 10:03:33;;;;;;;;;;;27.00;57.50;;;;;;5126335;27;20385;-56
2022/07/23 10:06:32;;;;;;;;;;;26.30;61.60;;;;;;5112441;27;20296;-55
2022/07/23 10:09:31;;;;;;;;;;;25.80;63.00;;;;;;5125301;27;19916;-56
2022/07/23 10:15:43;;;;;;;;;;;25.30;78.20;;;;;;5104465;27;20405;-55
2022/07/23 10:18:23;;;;;;;;;;;25.00;99.90;;;;;;5104670;27;19926;-56
2022/07/23 10:21:06;;;;;;;;;;;24.80;98.60;;;;;;5126136;27;19916;-56
2022/07/23 10:23:49;;;;;;;;;;;24.60;97.70;;;;;;5124992;27;19912;-55
2022/07/23 10:26:33;;;;;;;;;;;24.50;98.50;;;;;;5124318;27;19925;-55
2022/07/23 10:29:20;;;;;;;;;;;24.20;99.90;;;;;;5104698;27;19916;-55
2022/07/23 10:32:03;;;;;;;;;;;23.90;99.90;;;;;;5105752;27;19912;-56
2022/07/23 10:34:45;;;;;;;;;;;23.60;99.90;;;;;;5125236;27;20344;-55
2022/07/23 10:37:29;;;;;;;;;;;23.40;99.90;;;;;;5158267;27;19925;-55
2022/07/23 10:40:13;;;;;;;;;;;23.00;99.90;;;;;;5126006;27;19912;-54
2022/07/23 10:42:55;;;;;;;;;;;22.60;99.90;;;;;;5125120;27;19912;-55
2022/07/23 10:45:36;;;;;;;;;;;22.40;99.90;;;;;;5104594;27;19930;-56
2022/07/23 10:48:17;;;;;;;;;;;22.10;99.90;;;;;;5124835;27;19918;-54
2022/07/23 10:51:14;;;;;;;;;;;22.00;99.90;;;;;;5125459;27;19916;-55
2022/07/23 10:53:57;;;;;;;;;;;21.80;99.90;;;;;;5104508;27;20403;-57
2022/07/23 10:57:07;;;;;;;;;;;21.80;99.90;;;;;;5124356;27;19926;-55
2022/07/23 11:00:06;;;;;;;;;;;21.80;99.90;;;;;;5125537;27;20141;-54
2022/07/23 11:02:47;;;;;;;;;;;21.70;99.90;;;;;;5105244;27;20437;-56
2022/07/23 11:05:40;;;;;;;;;;;21.70;99.90;;;;;;5104932;27;19926;-56
2022/07/23 11:08:20;;;;;;;;;;;21.90;99.90;;;;;;5124819;27;19922;-56
2022/07/23 11:11:12;;;;;;;;;;;22.00;99.90;;;;;;5105014;27;19926;-54
2022/07/23 11:13:53;;;;;;;;;;;22.10;99.90;;;;;;5117455;27;20320;-56
2022/07/23 11:16:47;;;;;;;;;;;22.40;99.90;;;;;;5119689;27;20331;-55
2022/07/23 11:19:28;;;;;;;;;;;22.70;99.90;;;;;;5125257;27;19920;-55
2022/07/23 11:22:08;;;;;;;;;;;23.00;99.90;;;;;;5126173;27;19915;-54
2022/07/23 11:24:52;;;;;;;;;;;23.20;99.90;;;;;;5125149;27;19912;-57
2022/07/23 11:27:39;;;;;;;;;;;23.60;99.90;;;;;;5090101;27;19912;-55
2022/07/23 11:30:32;;;;;;;;;;;24.00;99.90;;;;;;5104789;27;19959;-55
2022/07/23 11:33:20;;;;;;;;;;;24.10;99.90;;;;;;5104734;27;19926;-55
2022/07/23 11:36:04;;;;;;;;;;;24.60;99.90;;;;;;5124799;27;20373;-56
2022/07/23 11:38:45;;;;;;;;;;;25.20;99.90;;;;;;5124769;27;20341;-58
2022/07/23 11:41:25;;;;;;;;;;;25.60;99.90;;;;;;5125863;27;19920;-55
2022/07/23 11:44:05;;;;;;;;;;;26.00;99.90;;;;;;5124884;27;19912;-56
2022/07/23 11:46:56;;;;;;;;;;;26.10;99.90;;;;;;5118156;27;19930;-55
2022/07/23 11:49:36;;;;;;;;;;;26.10;99.90;;;;;;5105142;27;19919;-55
2022/07/23 11:52:17;;;;;;;;;;;26.00;99.90;;;;;;5125629;27;19935;-55
2022/07/23 11:54:58;;;;;;;;;;;26.00;99.90;;;;;;5104467;27;19954;-56
2022/07/23 11:57:40;;;;;;;;;;;26.30;99.90;;;;;;5089287;27;20305;-55
2022/07/23 12:00:20;;;;;;;;;;;26.00;99.90;;;;;;5105242;27;19941;-55
2022/07/23 12:03:02;;;;;;;;;;;25.70;99.90;;;;;;5105570;27;20399;-55
2022/07/23 12:05:43;;;;;;;;;;;25.50;99.90;;;;;;5125396;27;19912;-55
2022/07/23 12:08:23;;;;;;;;;;;25.20;99.90;;;;;;5124038;27;19957;-58
2022/07/23 12:11:02;;;;;;;;;;;25.10;99.90;;;;;;5125113;27;20528;-57
2022/07/23 12:13:42;;;;;;;;;;;25.00;99.90;;;;;;5125215;27;19922;-55
2022/07/23 12:16:22;;;;;;;;;;;25.10;99.90;;;;;;5121248;27;19912;-55
2022/07/23 12:19:02;;;;;;;;;;;25.00;99.90;;;;;;5125101;27;19918;-56
2022/07/23 12:21:42;;;;;;;;;;;24.80;99.90;;;;;;5104768;27;19962;-54
2022/07/23 12:24:21;;;;;;;;;;;24.90;99.90;;;;;;5125872;27;20311;-55
2022/07/23 12:27:11;;;;;;;;;;;24.90;99.90;;;;;;5116040;27;20395;-56
2022/07/23 12:29:51;;;;;;;;;;;24.90;99.90;;;;;;5125184;27;19916;-55
2022/07/23 12:32:31;;;;;;;;;;;24.70;99.90;;;;;;5105086;27;19916;-55
2022/07/23 12:35:10;;;;;;;;;;;24.80;99.90;;;;;;5125918;27;19961;-55
2022/07/23 12:37:52;;;;;;;;;;;25.20;99.90;;;;;;5109202;27;20565;-55
2022/07/23 12:40:34;;;;;;;;;;;25.80;99.90;;;;;;5125283;27;19919;-55
2022/07/23 12:43:23;;;;;;;;;;;26.70;99.90;;;;;;5124707;27;19916;-55
2022/07/23 12:46:05;;;;;;;;;;;27.70;97.80;;;;;;5124142;27;19916;-56
2022/07/23 12:48:52;;;;;;;;;;;28.40;98.10;;;;;;5124960;27;19912;-56
2022/07/23 12:51:32;;;;;;;;;;;28.50;85.10;;;;;;5125542;27;19916;-55
2022/07/23 12:54:13;;;;;;;;;;;28.50;75.10;;;;;;5104841;27;19916;-55
2022/07/23 12:56:53;;;;;;;;;;;28.50;72.40;;;;;;5116736;27;19916;-56
2022/07/23 12:59:33;;;;;;;;;;;28.50;72.70;;;;;;5124766;27;20124;-56
2022/07/23 13:02:13;;;;;;;;;;;29.00;70.40;;;;;;5125572;27;19916;-55
2022/07/23 13:04:54;;;;;;;;;;;29.50;67.10;;;;;;5104561;27;20523;-56
2022/07/23 13:07:34;;;;;;;;;;;30.00;65.40;;;;;;5111581;27;20285;-56
2022/07/23 13:10:14;;;;;;;;;;;30.10;62.50;;;;;;5124796;27;19922;-57
2022/07/23 13:12:54;;;;;;;;;;;30.00;61.60;;;;;;5125642;27;19915;-56
2022/07/23 13:15:33;;;;;;;;;;;29.90;61.40;;;;;;5124907;27;19922;-56
2022/07/23 13:18:13;;;;;;;;;;;29.50;60.00;;;;;;5104595;27;20324;-56
2022/07/23 13:20:53;;;;;;;;;;;29.10;63.70;;;;;;5104615;27;19930;-55
2022/07/23 13:23:33;;;;;;;;;;;29.10;60.30;;;;;;5125788;27;20418;-55
2022/07/23 13:26:13;;;;;;;;;;;28.90;62.10;;;;;;5125094;27;19930;-55
2022/07/23 13:28:53;;;;;;;;;;;28.80;66.80;;;;;;5119191;27;19922;-55
2022/07/23 13:31:33;;;;;;;;;;;28.60;60.70;;;;;;5122837;27;19916;-55
2022/07/23 13:34:12;;;;;;;;;;;28.50;60.20;;;;;;5124842;27;19911;-55
2022/07/23 13:36:52;;;;;;;;;;;28.80;59.70;;;;;;5138631;27;19923;-56
2022/07/23 13:39:32;;;;;;;;;;;28.90;55.00;;;;;;5124662;27;19989;-54
2022/07/23 13:42:12;;;;;;;;;;;29.20;56.20;;;;;;5125375;27;19911;-55
2022/07/23 13:44:52;;;;;;;;;;;29.80;54.60;;;;;;5125181;27;19926;-57
2022/07/23 13:47:32;;;;;;;;;;;30.20;52.60;;;;;;5158628;27;20368;-54
2022/07/23 13:50:11;;;;;;;;;;;30.60;48.80;;;;;;5105846;27;19934;-55
2022/07/23 13:52:51;;;;;;;;;;;30.70;48.50;;;;;;5125549;27;19912;-55
2022/07/23 13:55:31;;;;;;;;;;;30.50;46.30;;;;;;5124767;27;20280;-56
2022/07/23 13:58:11;;;;;;;;;;;30.30;46.70;;;;;;5124502;27;19918;-56
2022/07/23 14:00:53;;;;;;;;;;;30.30;49.30;;;;;;5125014;27;19911;-55
2022/07/23 14:03:34;;;;;;;;;;;30.50;46.70;;;;;;5125972;27;19925;-56
2022/07/23 14:06:13;;;;;;;;;;;30.60;47.60;;;;;;5101136;27;20335;-56
2022/07/23 14:08:53;;;;;;;;;;;30.60;47.20;;;;;;5126160;27;20277;-55
2022/07/23 14:11:33;;;;;;;;;;;30.40;47.30;;;;;;5126006;27;20419;-55
2022/07/23 14:14:13;;;;;;;;;;;30.70;48.90;;;;;;5124785;27;19912;-55
2022/07/23 14:16:53;;;;;;;;;;;30.80;47.80;;;;;;5116214;27;20273;-56
2022/07/23 14:19:32;;;;;;;;;;;30.90;47.00;;;;;;5125473;27;19912;-55
2022/07/23 14:22:12;;;;;;;;;;;30.90;46.70;;;;;;5125659;27;19953;-56
2022/07/23 14:24:52;;;;;;;;;;;30.80;47.60;;;;;;5103903;27;19916;-56
2022/07/23 14:27:32;;;;;;;;;;;31.10;46.70;;;;;;5124022;27;19925;-56
2022/07/23 14:30:14;;;;;;;;;;;31.50;45.00;;;;;;5153950;27;19919;-56
2022/07/23 14:32:55;;;;;;;;;;;31.60;44.10;;;;;;5124705;27;19912;-56
2022/07/23 14:35:35;;;;;;;;;;;31.40;44.10;;;;;;5124832;27;19916;-55
2022/07/23 14:38:15;;;;;;;;;;;31.00;46.50;;;;;;5123253;27;19912;-55
2022/07/23 14:40:54;;;;;;;;;;;30.70;45.80;;;;;;5125019;27;19920;-55
2022/07/23 14:43:34;;;;;;;;;;;30.70;46.30;;;;;;5111285;27;20397;-55
2022/07/23 14:46:14;;;;;;;;;;;30.90;46.10;;;;;;5102946;27;20271;-55
2022/07/23 14:48:54;;;;;;;;;;;31.20;45.60;;;;;;5123598;27;19942;-55
2022/07/23 14:51:34;;;;;;;;;;;31.30;45.20;;;;;;5103686;27;19962;-56
2022/07/23 14:54:15;;;;;;;;;;;31.60;43.40;;;;;;5124803;27;19911;-55
2022/07/23 14:56:55;;;;;;;;;;;31.60;43.60;;;;;;5115855;27;19922;-55
2022/07/23 14:59:35;;;;;;;;;;;31.30;43.80;;;;;;5124518;27;19912;-55
2022/07/23 15:02:15;;;;;;;;;;;30.60;42.70;;;;;;5125080;27;19915;-56
2022/07/23 15:04:54;;;;;;;;;;;30.00;45.00;;;;;;5103894;27;20388;-57
2022/07/23 15:07:34;;;;;;;;;;;29.60;47.30;;;;;;5123656;27;19922;-56
2022/07/23 15:10:15;;;;;;;;;;;29.60;45.90;;;;;;5082957;28;19912;-57
2022/07/23 15:12:55;;;;;;;;;;;30.10;46.00;;;;;;5104382;27;19912;-56
2022/07/23 15:15:35;;;;;;;;;;;30.30;46.00;;;;;;5123739;27;20398;-56
2022/07/23 15:18:16;;;;;;;;;;;30.30;47.90;;;;;;5104157;27;19926;-57
2022/07/23 15:20:57;;;;;;;;;;;30.50;46.40;;;;;;5125294;27;19918;-56
2022/07/23 15:23:39;;;;;;;;;;;30.50;48.20;;;;;;5125121;27;20325;-57
2022/07/23 15:26:19;;;;;;;;;;;30.50;47.20;;;;;;5123918;27;19920;-58
2022/07/23 15:29:01;;;;;;;;;;;30.40;48.60;;;;;;5102970;27;19912;-57
2022/07/23 15:31:41;;;;;;;;;;;30.30;48.10;;;;;;5105497;27;19958;-57
2022/07/23 15:34:20;;;;;;;;;;;30.30;49.30;;;;;;5125996;27;19918;-56
2022/07/23 15:37:02;;;;;;;;;;;30.30;49.20;;;;;;5095032;27;20370;-57
2022/07/23 15:39:42;;;;;;;;;;;30.60;51.90;;;;;;5105767;27;19920;-57
2022/07/23 15:42:22;;;;;;;;;;;30.90;48.80;;;;;;5124947;27;19922;-57